sensor_id;sensor_type;location;lat;lon;timestamp;pressure;altitude;pressure_sealevel;temperature;humidity
11347;BME280;5728;42.722;23.258;2023-08-20T00:00:40;94998.47;;;22.67;62.78
11347;BME280;5728;42.722;23.258;2023-08-20T00:03:10;95007.56;;;22.77;61.85
11347;BME280;5728;42.722;23.258;2023-08-20T00:05:38;95012.16;;;22.73;62.20
11347;BME280;5728;42.722;23.258;2023-08-20T00:08:07;95005.84;;;22.76;62.62
11347;BME280;5728;42.722;23.258;2023-08-20T00:10:33;95004.03;;;22.62;62.87
11347;BME280;5728;42.722;23.258;2023-08-20T00:13:00;94996.00;;;22.64;62.97
11347;BME280;5728;42.722;23.258;2023-08-20T00:15:27;95000.22;;;22.37;63.50
11347;BME280;5728;42.722;23.258;2023-08-20T00:17:55;94998.75;;;22.31;64.25
11347;BME280;5728;42.722;23.258;2023-08-20T00:20:22;95004.56;;;22.38;64.13
11347;BME280;5728;42.722;23.258;2023-08-20T00:22:50;95009.75;;;22.23;64.52
11347;BME280;5728;42.722;23.258;2023-08-20T00:25:18;95005.66;;;22.18;64.80
11347;BME280;5728;42.722;23.258;2023-08-20T00:27:45;94994.78;;;22.08;65.17
11347;BME280;5728;42.722;23.258;2023-08-20T00:30:12;95005.34;;;22.08;65.54
11347;BME280;5728;42.722;23.258;2023-08-20T00:32:39;95002.63;;;22.10;64.78
11347;BME280;5728;42.722;23.258;2023-08-20T00:35:07;95010.78;;;22.05;65.11
11347;BME280;5728;42.722;23.258;2023-08-20T00:37:34;95005.78;;;22.01;65.11
11347;BME280;5728;42.722;23.258;2023-08-20T00:40:01;95003.56;;;21.93;65.61
11347;BME280;5728;42.722;23.258;2023-08-20T00:42:31;94997.44;;;21.93;65.56
11347;BME280;5728;42.722;23.258;2023-08-20T00:44:58;95007.91;;;21.94;65.48
11347;BME280;5728;42.722;23.258;2023-08-20T00:47:25;95006.13;;;21.95;65.59
11347;BME280;5728;42.722;23.258;2023-08-20T00:49:52;95004.69;;;22.05;65.58
11347;BME280;5728;42.722;23.258;2023-08-20T00:52:20;95008.41;;;22.01;65.05
11347;BME280;5728;42.722;23.258;2023-08-20T00:54:48;95008.16;;;22.05;64.94
11347;BME280;5728;42.722;23.258;2023-08-20T00:57:15;95005.66;;;22.18;64.95
11347;BME280;5728;42.722;23.258;2023-08-20T00:59:47;95005.50;;;22.05;64.74
11347;BME280;5728;42.722;23.258;2023-08-20T01:02:15;94994.13;;;22.05;65.21
11347;BME280;5728;42.722;23.258;2023-08-20T01:04:42;94994.78;;;22.08;64.99
11347;BME280;5728;42.722;23.258;2023-08-20T01:07:15;94994.50;;;22.13;64.55
11347;BME280;5728;42.722;23.258;2023-08-20T01:09:50;95000.06;;;22.08;65.05
11347;BME280;5728;42.722;23.258;2023-08-20T01:12:19;94992.56;;;22.16;64.71
11347;BME280;5728;42.722;23.258;2023-08-20T01:14:47;94998.44;;;22.21;64.17
11347;BME280;5728;42.722;23.258;2023-08-20T01:17:14;94994.94;;;22.21;64.27
11347;BME280;5728;42.722;23.258;2023-08-20T01:19:41;94994.78;;;22.24;64.29
11347;BME280;5728;42.722;23.258;2023-08-20T01:22:25;94991.81;;;22.14;64.81
11347;BME280;5728;42.722;23.258;2023-08-20T01:25:04;94989.16;;;22.14;64.54
11347;BME280;5728;42.722;23.258;2023-08-20T01:27:50;94995.63;;;22.24;64.41
11347;BME280;5728;42.722;23.258;2023-08-20T01:30:20;94994.28;;;22.17;64.25
11347;BME280;5728;42.722;23.258;2023-08-20T01:32:49;94992.03;;;22.25;64.09
11347;BME280;5728;42.722;23.258;2023-08-20T01:35:17;94994.78;;;22.08;64.65
11347;BME280;5728;42.722;23.258;2023-08-20T01:37:44;94981.50;;;22.10;64.83
11347;BME280;5728;42.722;23.258;2023-08-20T01:40:11;94990.50;;;22.21;64.42
11347;BME280;5728;42.722;23.258;2023-08-20T01:42:39;94987.63;;;22.10;64.73
11347;BME280;5728;42.722;23.258;2023-08-20T01:45:07;94977.59;;;22.01;64.90
11347;BME280;5728;42.722;23.258;2023-08-20T01:47:35;94992.25;;;22.07;65.00
11347;BME280;5728;42.722;23.258;2023-08-20T01:50:02;94975.19;;;22.12;64.50
11347;BME280;5728;42.722;23.258;2023-08-20T01:52:29;94961.03;;;22.13;64.99
11347;BME280;5728;42.722;23.258;2023-08-20T01:54:57;94969.72;;;22.15;64.75
11347;BME280;5728;42.722;23.258;2023-08-20T01:57:24;94959.09;;;22.01;65.36
11347;BME280;5728;42.722;23.258;2023-08-20T01:59:51;94959.16;;;22.15;64.54
11347;BME280;5728;42.722;23.258;2023-08-20T02:02:17;94963.47;;;22.02;65.24
11347;BME280;5728;42.722;23.258;2023-08-20T02:04:45;94957.47;;;22.14;64.78
11347;BME280;5728;42.722;23.258;2023-08-20T02:07:12;94960.69;;;22.19;64.60
11347;BME280;5728;42.722;23.258;2023-08-20T02:09:39;94956.88;;;22.09;64.87
11347;BME280;5728;42.722;23.258;2023-08-20T02:12:06;94956.44;;;22.17;65.03
11347;BME280;5728;42.722;23.258;2023-08-20T02:14:33;94960.69;;;22.19;64.82
11347;BME280;5728;42.722;23.258;2023-08-20T02:17:00;94959.69;;;22.06;65.38
11347;BME280;5728;42.722;23.258;2023-08-20T02:19:27;94957.75;;;22.10;64.72
11347;BME280;5728;42.722;23.258;2023-08-20T02:21:55;94952.19;;;22.14;64.57
11347;BME280;5728;42.722;23.258;2023-08-20T02:24:22;94950.34;;;22.31;64.19
11347;BME280;5728;42.722;23.258;2023-08-20T02:26:49;94960.53;;;22.22;64.42
11347;BME280;5728;42.722;23.258;2023-08-20T02:29:16;94963.47;;;22.02;64.98
11347;BME280;5728;42.722;23.258;2023-08-20T02:31:43;94963.84;;;22.10;65.02
11347;BME280;5728;42.722;23.258;2023-08-20T02:34:09;94969.81;;;21.98;65.62
11347;BME280;5728;42.722;23.258;2023-08-20T02:36:36;94970.22;;;21.75;66.50
11347;BME280;5728;42.722;23.258;2023-08-20T02:39:05;94965.41;;;21.35;68.35
11347;BME280;5728;42.722;23.258;2023-08-20T02:41:33;94966.22;;;21.37;69.18
11347;BME280;5728;42.722;23.258;2023-08-20T02:44:00;94967.66;;;21.27;68.95
11347;BME280;5728;42.722;23.258;2023-08-20T02:46:27;94961.91;;;21.19;69.45
11347;BME280;5728;42.722;23.258;2023-08-20T02:48:53;94970.50;;;21.22;69.56
11347;BME280;5728;42.722;23.258;2023-08-20T02:51:20;94967.03;;;21.05;70.16
11347;BME280;5728;42.722;23.258;2023-08-20T02:53:49;94976.97;;;20.99;70.37
11347;BME280;5728;42.722;23.258;2023-08-20T02:56:17;94981.97;;;20.88;70.84
11347;BME280;5728;42.722;23.258;2023-08-20T02:58:43;94989.88;;;20.71;71.54
11347;BME280;5728;42.722;23.258;2023-08-20T03:01:18;94986.31;;;20.72;71.70
11347;BME280;5728;42.722;23.258;2023-08-20T03:03:45;94974.53;;;20.62;72.43
11347;BME280;5728;42.722;23.258;2023-08-20T03:06:12;94978.56;;;20.52;73.22
11347;BME280;5728;42.722;23.258;2023-08-20T03:08:39;95004.69;;;20.74;71.47
11347;BME280;5728;42.722;23.258;2023-08-20T03:11:05;94992.44;;;20.73;72.15
11347;BME280;5728;42.722;23.258;2023-08-20T03:13:34;94977.47;;;20.73;71.85
11347;BME280;5728;42.722;23.258;2023-08-20T03:16:00;94982.41;;;20.79;71.62
11347;BME280;5728;42.722;23.258;2023-08-20T03:18:27;94982.44;;;20.45;73.39
11347;BME280;5728;42.722;23.258;2023-08-20T03:20:54;94986.06;;;20.25;74.03
11347;BME280;5728;42.722;23.258;2023-08-20T03:23:21;94986.56;;;20.15;74.59
11347;BME280;5728;42.722;23.258;2023-08-20T03:25:48;94983.19;;;20.47;73.68
11347;BME280;5728;42.722;23.258;2023-08-20T03:28:15;94982.00;;;20.54;73.48
11347;BME280;5728;42.722;23.258;2023-08-20T03:30:43;94981.91;;;20.39;73.44
11347;BME280;5728;42.722;23.258;2023-08-20T03:33:09;94979.75;;;20.47;73.23
11347;BME280;5728;42.722;23.258;2023-08-20T03:35:36;94983.22;;;20.64;72.46
11347;BME280;5728;42.722;23.258;2023-08-20T03:38:03;94974.34;;;20.82;72.04
11347;BME280;5728;42.722;23.258;2023-08-20T03:40:30;94973.75;;;20.77;72.05
11347;BME280;5728;42.722;23.258;2023-08-20T03:42:56;94975.91;;;20.86;71.38
11347;BME280;5728;42.722;23.258;2023-08-20T03:45:23;94959.53;;;20.97;71.05
11347;BME280;5728;42.722;23.258;2023-08-20T03:47:51;94959.31;;;20.84;71.65
11347;BME280;5728;42.722;23.258;2023-08-20T03:50:18;94970.16;;;20.95;70.95
11347;BME280;5728;42.722;23.258;2023-08-20T03:52:45;94968.22;;;20.99;71.02
11347;BME280;5728;42.722;23.258;2023-08-20T03:55:11;94967.53;;;20.95;70.95
11347;BME280;5728;42.722;23.258;2023-08-20T03:57:38;94965.34;;;21.04;70.92
11347;BME280;5728;42.722;23.258;2023-08-20T04:00:06;94963.41;;;21.07;70.41
11347;BME280;5728;42.722;23.258;2023-08-20T04:02:35;94968.78;;;21.06;71.05
11347;BME280;5728;42.722;23.258;2023-08-20T04:05:03;94961.38;;;21.12;70.32
11347;BME280;5728;42.722;23.258;2023-08-20T04:07:30;94955.19;;;21.13;70.68
11347;BME280;5728;42.722;23.258;2023-08-20T04:09:57;94951.84;;;21.10;71.18
11347;BME280;5728;42.722;23.258;2023-08-20T04:12:24;94954.56;;;21.08;71.31
11347;BME280;5728;42.722;23.258;2023-08-20T04:14:50;94971.25;;;21.09;71.31
11347;BME280;5728;42.722;23.258;2023-08-20T04:17:17;94958.44;;;21.18;70.82
11347;BME280;5728;42.722;23.258;2023-08-20T04:19:44;94969.34;;;21.28;70.89
11347;BME280;5728;42.722;23.258;2023-08-20T04:22:12;94968.50;;;21.43;70.60
11347;BME280;5728;42.722;23.258;2023-08-20T04:24:39;94962.22;;;21.61;69.93
11347;BME280;5728;42.722;23.258;2023-08-20T04:27:06;94968.09;;;21.66;69.94
11347;BME280;5728;42.722;23.258;2023-08-20T04:29:33;94968.69;;;21.71;69.08
11347;BME280;5728;42.722;23.258;2023-08-20T04:32:00;94966.72;;;21.43;69.96
11347;BME280;5728;42.722;23.258;2023-08-20T04:34:27;94978.22;;;21.58;69.81
11347;BME280;5728;42.722;23.258;2023-08-20T04:36:53;94975.94;;;21.52;69.94
11347;BME280;5728;42.722;23.258;2023-08-20T04:39:21;94985.13;;;21.60;69.79
11347;BME280;5728;42.722;23.258;2023-08-20T04:41:48;94983.72;;;21.86;69.12
11347;BME280;5728;42.722;23.258;2023-08-20T04:44:15;94985.06;;;21.93;69.26
11347;BME280;5728;42.722;23.258;2023-08-20T04:46:42;94978.59;;;22.14;68.30
11347;BME280;5728;42.722;23.258;2023-08-20T04:49:09;94978.31;;;22.35;67.26
11347;BME280;5728;42.722;23.258;2023-08-20T04:51:35;94987.59;;;22.42;66.90
11347;BME280;5728;42.722;23.258;2023-08-20T04:54:02;94978.38;;;22.33;67.21
11347;BME280;5728;42.722;23.258;2023-08-20T04:56:31;94984.34;;;22.37;67.14
11347;BME280;5728;42.722;23.258;2023-08-20T04:58:58;94986.09;;;22.52;66.82
11347;BME280;5728;42.722;23.258;2023-08-20T05:01:24;94984.97;;;22.71;66.53
11347;BME280;5728;42.722;23.258;2023-08-20T05:03:51;94985.47;;;22.78;65.85
11347;BME280;5728;42.722;23.258;2023-08-20T05:06:18;94981.75;;;23.10;65.35
11347;BME280;5728;42.722;23.258;2023-08-20T05:08:45;94981.91;;;23.21;64.82
11347;BME280;5728;42.722;23.258;2023-08-20T05:11:11;94981.69;;;23.40;63.93
11347;BME280;5728;42.722;23.258;2023-08-20T05:13:39;94988.69;;;23.55;63.93
11347;BME280;5728;42.722;23.258;2023-08-20T05:16:06;94992.34;;;23.81;62.91
11347;BME280;5728;42.722;23.258;2023-08-20T05:18:33;94986.34;;;24.05;61.83
11347;BME280;5728;42.722;23.258;2023-08-20T05:21:00;94979.63;;;24.00;61.65
11347;BME280;5728;42.722;23.258;2023-08-20T05:23:26;94995.66;;;24.25;60.78
11347;BME280;5728;42.722;23.258;2023-08-20T05:25:53;94990.16;;;24.55;59.13
11347;BME280;5728;42.722;23.258;2023-08-20T05:28:20;94995.56;;;24.53;59.38
11347;BME280;5728;42.722;23.258;2023-08-20T05:30:54;94997.28;;;24.54;59.66
11347;BME280;5728;42.722;23.258;2023-08-20T05:33:21;94998.78;;;24.58;59.06
11347;BME280;5728;42.722;23.258;2023-08-20T05:35:48;95005.16;;;24.68;59.08
11347;BME280;5728;42.722;23.258;2023-08-20T05:38:15;95000.03;;;24.80;58.66
11347;BME280;5728;42.722;23.258;2023-08-20T05:40:42;94997.59;;;24.89;58.54
11347;BME280;5728;42.722;23.258;2023-08-20T05:43:09;94994.44;;;24.97;58.42
11347;BME280;5728;42.722;23.258;2023-08-20T05:45:36;94998.47;;;24.90;58.98
11347;BME280;5728;42.722;23.258;2023-08-20T05:48:04;95002.22;;;25.12;58.63
11347;BME280;5728;42.722;23.258;2023-08-20T05:50:31;94990.00;;;25.35;57.22
11347;BME280;5728;42.722;23.258;2023-08-20T05:52:58;95004.38;;;25.58;56.75
11347;BME280;5728;42.722;23.258;2023-08-20T05:55:25;95008.91;;;25.68;56.87
11347;BME280;5728;42.722;23.258;2023-08-20T05:57:51;94994.47;;;25.72;55.90
11347;BME280;5728;42.722;23.258;2023-08-20T06:00:18;94994.03;;;25.66;57.23
11347;BME280;5728;42.722;23.258;2023-08-20T06:02:45;95002.75;;;25.80;56.79
11347;BME280;5728;42.722;23.258;2023-08-20T06:05:13;95000.09;;;25.80;57.11
11347;BME280;5728;42.722;23.258;2023-08-20T06:07:40;95004.88;;;26.24;55.73
11347;BME280;5728;42.722;23.258;2023-08-20T06:10:07;95001.97;;;26.40;54.64
11347;BME280;5728;42.722;23.258;2023-08-20T06:12:34;95012.38;;;26.67;53.43
11347;BME280;5728;42.722;23.258;2023-08-20T06:15:01;95001.50;;;26.70;53.17
11347;BME280;5728;42.722;23.258;2023-08-20T06:17:28;95008.66;;;27.04;51.97
11347;BME280;5728;42.722;23.258;2023-08-20T06:19:54;95004.22;;;27.04;51.58
11347;BME280;5728;42.722;23.258;2023-08-20T06:22:23;95003.44;;;27.37;51.31
11347;BME280;5728;42.722;23.258;2023-08-20T06:24:49;95013.34;;;27.81;49.77
11347;BME280;5728;42.722;23.258;2023-08-20T06:27:16;95020.63;;;28.01;49.50
11347;BME280;5728;42.722;23.258;2023-08-20T06:29:43;95009.81;;;28.25;48.90
11347;BME280;5728;42.722;23.258;2023-08-20T06:32:10;95013.97;;;28.07;49.93
11347;BME280;5728;42.722;23.258;2023-08-20T06:34:37;95020.09;;;27.85;49.61
11347;BME280;5728;42.722;23.258;2023-08-20T06:37:04;95007.00;;;27.82;50.47
11347;BME280;5728;42.722;23.258;2023-08-20T06:39:32;95029.09;;;28.17;49.83
11347;BME280;5728;42.722;23.258;2023-08-20T06:41:59;95018.00;;;28.55;48.94
11347;BME280;5728;42.722;23.258;2023-08-20T06:44:26;95008.56;;;28.94;47.90
11347;BME280;5728;42.722;23.258;2023-08-20T06:46:53;95013.91;;;28.94;48.42
11347;BME280;5728;42.722;23.258;2023-08-20T06:49:19;95033.03;;;29.31;47.37
11347;BME280;5728;42.722;23.258;2023-08-20T06:51:46;95014.69;;;29.37;46.48
11347;BME280;5728;42.722;23.258;2023-08-20T06:54:14;95002.59;;;29.63;45.89
11347;BME280;5728;42.722;23.258;2023-08-20T06:56:42;95008.09;;;29.41;46.35
11347;BME280;5728;42.722;23.258;2023-08-20T06:59:09;95017.34;;;29.05;47.37
11347;BME280;5728;42.722;23.258;2023-08-20T07:01:36;95008.97;;;29.10;47.65
11347;BME280;5728;42.722;23.258;2023-08-20T07:04:03;95005.69;;;29.38;46.93
11347;BME280;5728;42.722;23.258;2023-08-20T07:06:30;95008.50;;;29.37;46.04
11347;BME280;5728;42.722;23.258;2023-08-20T07:08:57;95001.91;;;29.41;46.20
11347;BME280;5728;42.722;23.258;2023-08-20T07:11:24;95006.25;;;29.62;45.81
11347;BME280;5728;42.722;23.258;2023-08-20T07:13:52;95014.00;;;29.86;44.38
11347;BME280;5728;42.722;23.258;2023-08-20T07:16:19;95011.03;;;30.10;44.04
11347;BME280;5728;42.722;23.258;2023-08-20T07:18:46;94999.38;;;29.81;44.08
11347;BME280;5728;42.722;23.258;2023-08-20T07:21:13;95025.34;;;29.79;44.53
11347;BME280;5728;42.722;23.258;2023-08-20T07:23:40;95003.81;;;30.01;44.06
11347;BME280;5728;42.722;23.258;2023-08-20T07:26:08;95002.34;;;29.66;43.67
11347;BME280;5728;42.722;23.258;2023-08-20T07:28:36;95006.50;;;30.01;43.38
11347;BME280;5728;42.722;23.258;2023-08-20T07:31:22;95020.09;;;30.28;42.04
11347;BME280;5728;42.722;23.258;2023-08-20T07:33:49;95023.22;;;30.33;41.88
11347;BME280;5728;42.722;23.258;2023-08-20T07:36:17;95008.38;;;30.59;41.90
11347;BME280;5728;42.722;23.258;2023-08-20T07:38:45;95022.00;;;30.16;42.24
11347;BME280;5728;42.722;23.258;2023-08-20T07:41:12;95021.69;;;30.00;41.90
11347;BME280;5728;42.722;23.258;2023-08-20T07:43:40;95010.03;;;30.41;42.00
11347;BME280;5728;42.722;23.258;2023-08-20T07:46:08;95007.16;;;29.93;42.46
11347;BME280;5728;42.722;23.258;2023-08-20T07:48:36;95035.44;;;30.26;41.98
11347;BME280;5728;42.722;23.258;2023-08-20T07:51:03;95012.41;;;30.44;41.89
11347;BME280;5728;42.722;23.258;2023-08-20T07:53:31;95012.19;;;30.66;40.80
11347;BME280;5728;42.722;23.258;2023-08-20T07:55:58;95014.06;;;31.04;40.09
11347;BME280;5728;42.722;23.258;2023-08-20T07:58:25;95007.31;;;31.29;39.27
11347;BME280;5728;42.722;23.258;2023-08-20T08:00:52;95020.28;;;31.14;39.67
11347;BME280;5728;42.722;23.258;2023-08-20T08:03:18;95015.94;;;31.04;39.48
11347;BME280;5728;42.722;23.258;2023-08-20T08:05:50;95004.63;;;30.90;39.70
11347;BME280;5728;42.722;23.258;2023-08-20T08:08:19;95003.78;;;31.00;39.73
11347;BME280;5728;42.722;23.258;2023-08-20T08:10:47;95009.84;;;31.30;39.00
11347;BME280;5728;42.722;23.258;2023-08-20T08:13:19;95006.16;;;31.22;39.32
11347;BME280;5728;42.722;23.258;2023-08-20T08:15:46;95004.63;;;31.48;38.51
11347;BME280;5728;42.722;23.258;2023-08-20T08:18:12;95017.88;;;31.59;38.17
11347;BME280;5728;42.722;23.258;2023-08-20T08:20:40;95008.91;;;31.87;37.90
11347;BME280;5728;42.722;23.258;2023-08-20T08:23:08;95007.25;;;31.77;37.62
11347;BME280;5728;42.722;23.258;2023-08-20T08:25:35;95002.47;;;31.42;38.30
11347;BME280;5728;42.722;23.258;2023-08-20T08:28:03;95031.84;;;31.63;37.28
11347;BME280;5728;42.722;23.258;2023-08-20T08:30:30;95012.09;;;31.25;37.83
11347;BME280;5728;42.722;23.258;2023-08-20T08:32:58;94994.31;;;31.53;37.62
11347;BME280;5728;42.722;23.258;2023-08-20T08:35:25;95001.38;;;31.35;37.87
11347;BME280;5728;42.722;23.258;2023-08-20T08:37:52;95000.97;;;31.20;38.13
11347;BME280;5728;42.722;23.258;2023-08-20T08:40:21;94998.28;;;31.49;37.16
11347;BME280;5728;42.722;23.258;2023-08-20T08:42:48;95004.47;;;31.40;37.38
11347;BME280;5728;42.722;23.258;2023-08-20T08:45:18;95001.81;;;31.59;36.33
11347;BME280;5728;42.722;23.258;2023-08-20T08:47:46;95003.94;;;31.92;36.32
11347;BME280;5728;42.722;23.258;2023-08-20T08:50:14;95002.66;;;31.96;35.94
11347;BME280;5728;42.722;23.258;2023-08-20T08:52:41;95033.22;;;32.23;35.63
11347;BME280;5728;42.722;23.258;2023-08-20T08:55:09;94987.06;;;32.19;34.11
11347;BME280;5728;42.722;23.258;2023-08-20T08:57:37;95007.50;;;31.83;35.42
11347;BME280;5728;42.722;23.258;2023-08-20T09:00:05;95004.53;;;31.86;35.87
11347;BME280;5728;42.722;23.258;2023-08-20T09:02:32;95006.09;;;31.98;36.15
11347;BME280;5728;42.722;23.258;2023-08-20T09:05:00;94980.94;;;31.90;35.69
11347;BME280;5728;42.722;23.258;2023-08-20T09:07:27;95010.03;;;31.94;35.01
11347;BME280;5728;42.722;23.258;2023-08-20T09:09:58;94998.34;;;32.23;34.61
11347;BME280;5728;42.722;23.258;2023-08-20T09:12:26;95001.88;;;32.60;34.10
11347;BME280;5728;42.722;23.258;2023-08-20T09:14:55;95003.97;;;33.01;33.78
11347;BME280;5728;42.722;23.258;2023-08-20T09:17:26;95009.91;;;33.05;33.04
11347;BME280;5728;42.722;23.258;2023-08-20T09:19:56;94990.72;;;33.17;33.37
11347;BME280;5728;42.722;23.258;2023-08-20T09:22:23;94994.34;;;32.81;32.83
11347;BME280;5728;42.722;23.258;2023-08-20T09:24:55;94998.75;;;32.82;33.33
11347;BME280;5728;42.722;23.258;2023-08-20T09:27:22;94999.66;;;32.91;31.87
11347;BME280;5728;42.722;23.258;2023-08-20T09:29:50;95005.78;;;33.10;31.66
11347;BME280;5728;42.722;23.258;2023-08-20T09:32:20;95006.22;;;33.06;32.63
11347;BME280;5728;42.722;23.258;2023-08-20T09:34:48;95026.94;;;33.13;32.08
11347;BME280;5728;42.722;23.258;2023-08-20T09:37:17;95017.28;;;33.20;31.72
11347;BME280;5728;42.722;23.258;2023-08-20T09:39:44;95002.34;;;33.43;31.28
11347;BME280;5728;42.722;23.258;2023-08-20T09:42:12;95004.25;;;33.25;30.75
11347;BME280;5728;42.722;23.258;2023-08-20T09:44:40;95000.56;;;33.70;31.13
11347;BME280;5728;42.722;23.258;2023-08-20T09:47:08;94992.50;;;33.70;30.40
11347;BME280;5728;42.722;23.258;2023-08-20T09:49:40;95012.66;;;33.66;29.47
11347;BME280;5728;42.722;23.258;2023-08-20T09:52:08;94988.16;;;33.77;29.35
11347;BME280;5728;42.722;23.258;2023-08-20T09:54:44;94986.59;;;33.92;29.32
11347;BME280;5728;42.722;23.258;2023-08-20T09:57:23;95000.56;;;33.52;29.29
11347;BME280;5728;42.722;23.258;2023-08-20T09:59:53;95019.34;;;33.62;28.58
11347;BME280;5728;42.722;23.258;2023-08-20T10:02:20;94998.22;;;33.31;28.50
11347;BME280;5728;42.722;23.258;2023-08-20T10:04:49;94997.25;;;33.76;27.84
11347;BME280;5728;42.722;23.258;2023-08-20T10:07:17;94997.13;;;33.42;27.89
11347;BME280;5728;42.722;23.258;2023-08-20T10:09:44;94993.25;;;33.80;27.71
11347;BME280;5728;42.722;23.258;2023-08-20T10:12:12;95001.13;;;33.81;28.08
11347;BME280;5728;42.722;23.258;2023-08-20T10:14:40;94988.91;;;33.87;28.64
11347;BME280;5728;42.722;23.258;2023-08-20T10:17:08;95003.19;;;34.05;27.72
11347;BME280;5728;42.722;23.258;2023-08-20T10:19:36;94994.91;;;34.32;27.02
11347;BME280;5728;42.722;23.258;2023-08-20T10:22:09;94992.81;;;34.18;27.07
11347;BME280;5728;42.722;23.258;2023-08-20T10:24:58;94994.31;;;34.46;26.65
11347;BME280;5728;42.722;23.258;2023-08-20T10:27:27;94991.34;;;34.66;26.98
11347;BME280;5728;42.722;23.258;2023-08-20T10:29:55;94999.81;;;34.79;27.25
11347;BME280;5728;42.722;23.258;2023-08-20T10:32:45;94991.50;;;35.14;26.91
11347;BME280;5728;42.722;23.258;2023-08-20T10:35:13;94987.66;;;35.57;26.33
11347;BME280;5728;42.722;23.258;2023-08-20T10:38:00;94979.03;;;35.53;26.52
11347;BME280;5728;42.722;23.258;2023-08-20T10:40:47;94974.16;;;35.24;25.91
11347;BME280;5728;42.722;23.258;2023-08-20T10:43:26;94981.53;;;35.22;25.63
11347;BME280;5728;42.722;23.258;2023-08-20T10:46:02;94981.56;;;35.14;26.41
11347;BME280;5728;42.722;23.258;2023-08-20T10:48:30;94975.31;;;35.30;26.24
11347;BME280;5728;42.722;23.258;2023-08-20T10:50:57;94972.78;;;35.77;25.62
11347;BME280;5728;42.722;23.258;2023-08-20T10:53:25;94966.88;;;35.65;25.53
11347;BME280;5728;42.722;23.258;2023-08-20T10:55:52;94971.09;;;35.68;25.26
11347;BME280;5728;42.722;23.258;2023-08-20T10:58:23;94971.63;;;35.71;25.13
11347;BME280;5728;42.722;23.258;2023-08-20T11:01:18;94972.09;;;35.83;24.69
11347;BME280;5728;42.722;23.258;2023-08-20T11:03:46;94963.19;;;35.74;25.50
11347;BME280;5728;42.722;23.258;2023-08-20T11:06:14;94963.53;;;35.55;25.49
11347;BME280;5728;42.722;23.258;2023-08-20T11:08:43;94966.88;;;35.90;24.47
11347;BME280;5728;42.722;23.258;2023-08-20T11:11:10;94977.00;;;35.63;25.12
11347;BME280;5728;42.722;23.258;2023-08-20T11:13:38;94948.38;;;35.62;25.31
11347;BME280;5728;42.722;23.258;2023-08-20T11:16:06;94955.75;;;35.76;24.90
11347;BME280;5728;42.722;23.258;2023-08-20T11:18:34;94967.22;;;35.38;24.91
11347;BME280;5728;42.722;23.258;2023-08-20T11:21:01;94961.28;;;35.83;24.66
11347;BME280;5728;42.722;23.258;2023-08-20T11:23:28;94951.91;;;36.26;23.96
11347;BME280;5728;42.722;23.258;2023-08-20T11:25:57;94958.84;;;36.67;24.09
11347;BME280;5728;42.722;23.258;2023-08-20T11:28:26;94946.66;;;36.71;24.22
11347;BME280;5728;42.722;23.258;2023-08-20T11:30:53;94935.00;;;36.32;24.40
11347;BME280;5728;42.722;23.258;2023-08-20T11:33:21;94950.31;;;36.01;24.60
11347;BME280;5728;42.722;23.258;2023-08-20T11:35:48;94944.56;;;36.04;24.03
11347;BME280;5728;42.722;23.258;2023-08-20T11:38:15;94955.00;;;36.15;24.47
11347;BME280;5728;42.722;23.258;2023-08-20T11:40:42;94948.41;;;36.17;24.79
11347;BME280;5728;42.722;23.258;2023-08-20T11:43:10;94942.25;;;35.84;25.06
11347;BME280;5728;42.722;23.258;2023-08-20T11:45:47;94928.72;;;36.47;24.67
11347;BME280;5728;42.722;23.258;2023-08-20T11:48:15;94931.50;;;36.23;25.04
11347;BME280;5728;42.722;23.258;2023-08-20T11:50:43;94942.63;;;36.28;24.99
11347;BME280;5728;42.722;23.258;2023-08-20T11:53:10;94934.25;;;36.54;24.71
11347;BME280;5728;42.722;23.258;2023-08-20T11:55:38;94937.16;;;36.44;24.92
11347;BME280;5728;42.722;23.258;2023-08-20T11:58:09;94923.72;;;36.67;25.07
11347;BME280;5728;42.722;23.258;2023-08-20T12:00:38;94932.38;;;36.85;24.73
11347;BME280;5728;42.722;23.258;2023-08-20T12:03:05;94933.63;;;37.05;24.78
11347;BME280;5728;42.722;23.258;2023-08-20T12:05:33;94940.44;;;36.93;25.13
11347;BME280;5728;42.722;23.258;2023-08-20T12:08:00;94919.06;;;37.06;24.45
11347;BME280;5728;42.722;23.258;2023-08-20T12:10:29;94913.31;;;36.79;25.17
11347;BME280;5728;42.722;23.258;2023-08-20T12:12:57;94928.19;;;36.44;25.39
11347;BME280;5728;42.722;23.258;2023-08-20T12:15:25;94931.13;;;36.34;25.45
11347;BME280;5728;42.722;23.258;2023-08-20T12:17:57;94917.13;;;36.92;25.23
11347;BME280;5728;42.722;23.258;2023-08-20T12:20:27;94925.06;;;36.94;25.16
11347;BME280;5728;42.722;23.258;2023-08-20T12:22:54;94909.78;;;37.24;24.38
11347;BME280;5728;42.722;23.258;2023-08-20T12:25:20;94902.75;;;36.69;25.50
11347;BME280;5728;42.722;23.258;2023-08-20T12:27:47;94907.19;;;37.16;24.80
11347;BME280;5728;42.722;23.258;2023-08-20T12:30:14;94906.06;;;37.25;24.68
11347;BME280;5728;42.722;23.258;2023-08-20T12:32:41;94912.94;;;37.13;24.59
11347;BME280;5728;42.722;23.258;2023-08-20T12:35:09;94898.19;;;36.92;24.93
11347;BME280;5728;42.722;23.258;2023-08-20T12:37:36;94904.97;;;36.88;24.86
11347;BME280;5728;42.722;23.258;2023-08-20T12:40:04;94904.50;;;37.53;24.51
11347;BME280;5728;42.722;23.258;2023-08-20T12:42:36;94900.78;;;37.31;24.29
11347;BME280;5728;42.722;23.258;2023-08-20T12:45:04;94894.69;;;37.52;24.09
11347;BME280;5728;42.722;23.258;2023-08-20T12:47:30;94914.00;;;37.49;23.69
11347;BME280;5728;42.722;23.258;2023-08-20T12:49:57;94899.22;;;36.91;25.09
11347;BME280;5728;42.722;23.258;2023-08-20T12:52:42;94906.91;;;36.80;25.33
11347;BME280;5728;42.722;23.258;2023-08-20T12:55:09;94894.75;;;36.76;25.27
11347;BME280;5728;42.722;23.258;2023-08-20T12:57:36;94894.94;;;36.74;25.27
11347;BME280;5728;42.722;23.258;2023-08-20T13:00:04;94903.16;;;36.81;25.04
11347;BME280;5728;42.722;23.258;2023-08-20T13:02:37;94889.88;;;36.48;25.42
11347;BME280;5728;42.722;23.258;2023-08-20T13:05:04;94888.31;;;37.07;25.10